Terminal Aerodrome Forecast
Issued by NWS

Home | Current Version | Previous Version | Text Only | Print | Product List | Glossary On
Versions: 1 2 3 4 5 6 7 8 9 10 11 12 13 14 15 16 17 18 19 20 21 22 23 24 25 26 27 28
000
FTUS43 KDLH 180802 AAA
TAFBRD
TAF AMD
KBRD 180802Z 1808/1906 00000KT 6SM BR BKN130
     FM181300 28005KT P6SM BKN140
     FM182200 28005KT P6SM VCTS BKN090CB
     FM190000 VRB03KT P6SM SCT090=

USA.gov is the U.S. government's official web portal to all federal, state and local government web resources and services.